sensor_id;sensor_type;location;lat;lon;timestamp;temperature;humidity
64997;SHT31;51545;51.568;6.998;2022-10-16T00:00:42;13.74;97.05
64997;SHT31;51545;51.568;6.998;2022-10-16T00:03:08;13.76;97.15
64997;SHT31;51545;51.568;6.998;2022-10-16T00:05:37;13.77;97.00
64997;SHT31;51545;51.568;6.998;2022-10-16T00:08:05;13.77;96.94
64997;SHT31;51545;51.568;6.998;2022-10-16T00:10:30;13.74;96.95
64997;SHT31;51545;51.568;6.998;2022-10-16T00:12:56;13.64;97.03
64997;SHT31;51545;51.568;6.998;2022-10-16T00:15:21;13.60;97.16
64997;SHT31;51545;51.568;6.998;2022-10-16T00:17:47;13.60;97.28
64997;SHT31;51545;51.568;6.998;2022-10-16T00:20:12;13.59;97.32
64997;SHT31;51545;51.568;6.998;2022-10-16T00:22:38;13.56;97.27
64997;SHT31;51545;51.568;6.998;2022-10-16T00:25:03;13.50;97.46
64997;SHT31;51545;51.568;6.998;2022-10-16T00:27:29;13.47;97.54
64997;SHT31;51545;51.568;6.998;2022-10-16T00:29:54;13.38;97.31
64997;SHT31;51545;51.568;6.998;2022-10-16T00:32:20;13.32;97.28
64997;SHT31;51545;51.568;6.998;2022-10-16T00:34:45;13.36;97.70
64997;SHT31;51545;51.568;6.998;2022-10-16T00:37:11;13.32;97.77
64997;SHT31;51545;51.568;6.998;2022-10-16T00:39:37;13.38;97.95
64997;SHT31;51545;51.568;6.998;2022-10-16T00:42:03;13.42;97.87
64997;SHT31;51545;51.568;6.998;2022-10-16T00:44:43;13.49;97.57
64997;SHT31;51545;51.568;6.998;2022-10-16T00:47:32;13.49;97.44
64997;SHT31;51545;51.568;6.998;2022-10-16T00:50:06;13.53;97.34
64997;SHT31;51545;51.568;6.998;2022-10-16T00:52:35;13.56;97.33
64997;SHT31;51545;51.568;6.998;2022-10-16T00:55:04;13.56;97.28
64997;SHT31;51545;51.568;6.998;2022-10-16T00:57:31;13.54;97.27
64997;SHT31;51545;51.568;6.998;2022-10-16T00:59:57;13.57;97.12
64997;SHT31;51545;51.568;6.998;2022-10-16T01:02:23;13.56;97.11
64997;SHT31;51545;51.568;6.998;2022-10-16T01:04:50;13.52;97.11
64997;SHT31;51545;51.568;6.998;2022-10-16T01:10:06;13.54;97.21
64997;SHT31;51545;51.568;6.998;2022-10-16T01:12:42;13.44;97.11
64997;SHT31;51545;51.568;6.998;2022-10-16T01:18:00;13.36;97.10
64997;SHT31;51545;51.568;6.998;2022-10-16T01:20:33;13.36;97.40
64997;SHT31;51545;51.568;6.998;2022-10-16T01:23:15;13.29;97.30
64997;SHT31;51545;51.568;6.998;2022-10-16T01:31:35;13.14;97.95
64997;SHT31;51545;51.568;6.998;2022-10-16T01:34:05;13.21;98.12
64997;SHT31;51545;51.568;6.998;2022-10-16T01:36:39;13.33;98.17
64997;SHT31;51545;51.568;6.998;2022-10-16T01:39:08;13.39;97.92
64997;SHT31;51545;51.568;6.998;2022-10-16T01:41:40;13.36;97.77
64997;SHT31;51545;51.568;6.998;2022-10-16T01:44:22;13.29;97.51
64997;SHT31;51545;51.568;6.998;2022-10-16T01:46:53;13.25;97.73
64997;SHT31;51545;51.568;6.998;2022-10-16T01:49:20;13.26;97.85
64997;SHT31;51545;51.568;6.998;2022-10-16T01:51:48;13.22;97.74
64997;SHT31;51545;51.568;6.998;2022-10-16T01:54:17;13.19;97.80
64997;SHT31;51545;51.568;6.998;2022-10-16T01:56:44;13.19;97.74
64997;SHT31;51545;51.568;6.998;2022-10-16T01:59:13;13.19;97.80
64997;SHT31;51545;51.568;6.998;2022-10-16T02:01:44;13.23;97.76
64997;SHT31;51545;51.568;6.998;2022-10-16T02:04:20;13.19;97.70
64997;SHT31;51545;51.568;6.998;2022-10-16T02:06:56;13.25;97.65
64997;SHT31;51545;51.568;6.998;2022-10-16T02:09:22;13.28;97.56
64997;SHT31;51545;51.568;6.998;2022-10-16T02:11:47;13.29;97.46
64997;SHT31;51545;51.568;6.998;2022-10-16T02:14:15;13.32;97.30
64997;SHT31;51545;51.568;6.998;2022-10-16T02:16:42;13.36;97.19
64997;SHT31;51545;51.568;6.998;2022-10-16T02:19:14;13.33;97.11
64997;SHT31;51545;51.568;6.998;2022-10-16T02:21:56;13.38;97.07
64997;SHT31;51545;51.568;6.998;2022-10-16T02:24:32;13.50;96.43
64997;SHT31;51545;51.568;6.998;2022-10-16T02:27:05;13.54;96.03
64997;SHT31;51545;51.568;6.998;2022-10-16T02:29:39;13.69;95.41
64997;SHT31;51545;51.568;6.998;2022-10-16T02:32:13;13.60;95.47
64997;SHT31;51545;51.568;6.998;2022-10-16T02:34:43;13.57;95.56
64997;SHT31;51545;51.568;6.998;2022-10-16T02:37:10;13.54;95.61
64997;SHT31;51545;51.568;6.998;2022-10-16T02:39:35;13.54;95.52
64997;SHT31;51545;51.568;6.998;2022-10-16T02:42:02;13.59;95.40
64997;SHT31;51545;51.568;6.998;2022-10-16T02:44:28;13.56;95.38
64997;SHT31;51545;51.568;6.998;2022-10-16T02:46:53;13.56;95.46
64997;SHT31;51545;51.568;6.998;2022-10-16T02:49:18;13.54;95.42
64997;SHT31;51545;51.568;6.998;2022-10-16T02:51:44;13.50;95.65
64997;SHT31;51545;51.568;6.998;2022-10-16T02:54:09;13.53;95.62
64997;SHT31;51545;51.568;6.998;2022-10-16T02:56:35;13.61;94.95
64997;SHT31;51545;51.568;6.998;2022-10-16T02:59:01;13.66;94.73
64997;SHT31;51545;51.568;6.998;2022-10-16T03:01:26;13.63;94.81
64997;SHT31;51545;51.568;6.998;2022-10-16T03:03:52;13.53;94.98
64997;SHT31;51545;51.568;6.998;2022-10-16T03:06:17;13.57;95.14
64997;SHT31;51545;51.568;6.998;2022-10-16T03:08:43;13.59;94.97
64997;SHT31;51545;51.568;6.998;2022-10-16T03:11:08;13.66;94.69
64997;SHT31;51545;51.568;6.998;2022-10-16T03:13:34;13.67;94.52
64997;SHT31;51545;51.568;6.998;2022-10-16T03:15:59;13.66;94.53
64997;SHT31;51545;51.568;6.998;2022-10-16T03:18:24;13.67;94.60
64997;SHT31;51545;51.568;6.998;2022-10-16T03:20:50;13.69;94.62
64997;SHT31;51545;51.568;6.998;2022-10-16T03:23:15;13.77;94.02
64997;SHT31;51545;51.568;6.998;2022-10-16T03:25:41;13.76;93.99
64997;SHT31;51545;51.568;6.998;2022-10-16T03:28:06;13.74;93.89
64997;SHT31;51545;51.568;6.998;2022-10-16T03:30:32;13.77;93.75
64997;SHT31;51545;51.568;6.998;2022-10-16T03:32:57;13.76;93.58
64997;SHT31;51545;51.568;6.998;2022-10-16T03:35:23;13.77;93.44
64997;SHT31;51545;51.568;6.998;2022-10-16T03:37:49;13.80;93.19
64997;SHT31;51545;51.568;6.998;2022-10-16T03:40:15;13.91;92.69
64997;SHT31;51545;51.568;6.998;2022-10-16T03:42:44;13.91;92.53
64997;SHT31;51545;51.568;6.998;2022-10-16T03:45:10;13.91;92.33
64997;SHT31;51545;51.568;6.998;2022-10-16T03:47:36;13.84;92.51
64997;SHT31;51545;51.568;6.998;2022-10-16T03:50:02;13.87;92.45
64997;SHT31;51545;51.568;6.998;2022-10-16T03:52:28;13.87;92.35
64997;SHT31;51545;51.568;6.998;2022-10-16T03:54:53;13.77;92.58
64997;SHT31;51545;51.568;6.998;2022-10-16T03:57:19;13.80;92.47
64997;SHT31;51545;51.568;6.998;2022-10-16T03:59:45;13.81;92.36
64997;SHT31;51545;51.568;6.998;2022-10-16T04:02:11;13.77;92.45
64997;SHT31;51545;51.568;6.998;2022-10-16T04:04:36;13.66;92.81
64997;SHT31;51545;51.568;6.998;2022-10-16T04:07:01;13.69;92.95
64997;SHT31;51545;51.568;6.998;2022-10-16T04:09:27;13.69;92.94
64997;SHT31;51545;51.568;6.998;2022-10-16T04:11:52;13.71;92.85
64997;SHT31;51545;51.568;6.998;2022-10-16T04:14:18;13.67;93.06
64997;SHT31;51545;51.568;6.998;2022-10-16T04:16:44;13.70;93.07
64997;SHT31;51545;51.568;6.998;2022-10-16T04:19:10;13.70;92.91
64997;SHT31;51545;51.568;6.998;2022-10-16T04:21:36;13.74;92.67
64997;SHT31;51545;51.568;6.998;2022-10-16T04:24:02;13.71;92.69
64997;SHT31;51545;51.568;6.998;2022-10-16T04:26:27;13.66;92.82
64997;SHT31;51545;51.568;6.998;2022-10-16T04:28:53;13.64;93.01
64997;SHT31;51545;51.568;6.998;2022-10-16T04:31:19;13.59;93.37
64997;SHT31;51545;51.568;6.998;2022-10-16T04:33:44;13.54;93.35
64997;SHT31;51545;51.568;6.998;2022-10-16T04:36:10;13.57;93.30
64997;SHT31;51545;51.568;6.998;2022-10-16T04:38:35;13.56;93.29
64997;SHT31;51545;51.568;6.998;2022-10-16T04:41:02;13.52;93.47
64997;SHT31;51545;51.568;6.998;2022-10-16T04:43:28;13.53;93.63
64997;SHT31;51545;51.568;6.998;2022-10-16T04:45:54;13.54;93.48
64997;SHT31;51545;51.568;6.998;2022-10-16T04:48:19;13.54;93.51
64997;SHT31;51545;51.568;6.998;2022-10-16T04:50:45;13.61;93.22
64997;SHT31;51545;51.568;6.998;2022-10-16T04:53:11;13.63;92.99
64997;SHT31;51545;51.568;6.998;2022-10-16T04:55:37;13.64;93.06
64997;SHT31;51545;51.568;6.998;2022-10-16T04:58:03;13.61;93.12
64997;SHT31;51545;51.568;6.998;2022-10-16T05:00:28;13.60;93.19
64997;SHT31;51545;51.568;6.998;2022-10-16T05:02:54;13.54;93.39
64997;SHT31;51545;51.568;6.998;2022-10-16T05:05:21;13.57;93.32
64997;SHT31;51545;51.568;6.998;2022-10-16T05:07:46;13.59;93.36
64997;SHT31;51545;51.568;6.998;2022-10-16T05:10:12;13.59;93.36
64997;SHT31;51545;51.568;6.998;2022-10-16T05:12:38;13.61;93.26
64997;SHT31;51545;51.568;6.998;2022-10-16T05:15:04;13.61;93.29
64997;SHT31;51545;51.568;6.998;2022-10-16T05:17:30;13.64;93.14
64997;SHT31;51545;51.568;6.998;2022-10-16T05:19:55;13.60;93.18
64997;SHT31;51545;51.568;6.998;2022-10-16T05:22:21;13.66;92.93
64997;SHT31;51545;51.568;6.998;2022-10-16T05:24:47;13.67;93.00
64997;SHT31;51545;51.568;6.998;2022-10-16T05:27:12;13.67;92.81
64997;SHT31;51545;51.568;6.998;2022-10-16T05:29:44;13.67;92.79
64997;SHT31;51545;51.568;6.998;2022-10-16T05:32:10;13.67;92.91
64997;SHT31;51545;51.568;6.998;2022-10-16T05:34:36;13.70;92.86
64997;SHT31;51545;51.568;6.998;2022-10-16T05:37:01;13.67;92.94
64997;SHT31;51545;51.568;6.998;2022-10-16T05:39:27;13.64;92.93
64997;SHT31;51545;51.568;6.998;2022-10-16T05:41:52;13.60;93.16
64997;SHT31;51545;51.568;6.998;2022-10-16T05:44:18;13.67;93.10
64997;SHT31;51545;51.568;6.998;2022-10-16T05:46:43;13.63;93.04
64997;SHT31;51545;51.568;6.998;2022-10-16T05:49:11;13.60;93.17
64997;SHT31;51545;51.568;6.998;2022-10-16T05:51:36;13.56;93.38
64997;SHT31;51545;51.568;6.998;2022-10-16T05:54:02;13.53;93.48
64997;SHT31;51545;51.568;6.998;2022-10-16T05:56:27;13.52;93.69
64997;SHT31;51545;51.568;6.998;2022-10-16T05:58:53;13.49;93.73
64997;SHT31;51545;51.568;6.998;2022-10-16T06:01:19;13.39;94.03
64997;SHT31;51545;51.568;6.998;2022-10-16T06:03:45;13.35;94.32
64997;SHT31;51545;51.568;6.998;2022-10-16T06:06:16;13.35;94.35
64997;SHT31;51545;51.568;6.998;2022-10-16T06:08:43;13.33;94.43
64997;SHT31;51545;51.568;6.998;2022-10-16T06:11:11;13.40;94.32
64997;SHT31;51545;51.568;6.998;2022-10-16T06:13:39;13.39;94.22
64997;SHT31;51545;51.568;6.998;2022-10-16T06:16:06;13.35;94.34
64997;SHT31;51545;51.568;6.998;2022-10-16T06:18:32;13.29;94.50
64997;SHT31;51545;51.568;6.998;2022-10-16T06:20:58;13.32;94.63
64997;SHT31;51545;51.568;6.998;2022-10-16T06:23:24;13.25;94.65
64997;SHT31;51545;51.568;6.998;2022-10-16T06:25:50;13.29;94.81
64997;SHT31;51545;51.568;6.998;2022-10-16T06:28:15;13.31;94.77
64997;SHT31;51545;51.568;6.998;2022-10-16T06:30:41;13.39;94.65
64997;SHT31;51545;51.568;6.998;2022-10-16T06:33:09;13.44;94.50
64997;SHT31;51545;51.568;6.998;2022-10-16T06:35:35;13.44;94.50
64997;SHT31;51545;51.568;6.998;2022-10-16T06:38:01;13.50;94.30
64997;SHT31;51545;51.568;6.998;2022-10-16T06:40:26;13.61;93.96
64997;SHT31;51545;51.568;6.998;2022-10-16T06:42:54;13.63;93.87
64997;SHT31;51545;51.568;6.998;2022-10-16T06:45:20;13.66;93.83
64997;SHT31;51545;51.568;6.998;2022-10-16T06:47:45;13.70;93.72
64997;SHT31;51545;51.568;6.998;2022-10-16T06:50:11;13.70;93.60
64997;SHT31;51545;51.568;6.998;2022-10-16T06:52:36;13.66;93.77
64997;SHT31;51545;51.568;6.998;2022-10-16T06:55:02;13.67;93.67
64997;SHT31;51545;51.568;6.998;2022-10-16T06:57:28;13.69;93.64
64997;SHT31;51545;51.568;6.998;2022-10-16T06:59:53;13.64;93.83
64997;SHT31;51545;51.568;6.998;2022-10-16T07:02:19;13.57;93.97
64997;SHT31;51545;51.568;6.998;2022-10-16T07:04:44;13.57;94.21
64997;SHT31;51545;51.568;6.998;2022-10-16T07:07:10;13.60;94.18
64997;SHT31;51545;51.568;6.998;2022-10-16T07:09:35;13.61;94.08
64997;SHT31;51545;51.568;6.998;2022-10-16T07:12:01;13.64;93.91
64997;SHT31;51545;51.568;6.998;2022-10-16T07:14:26;13.63;94.05
64997;SHT31;51545;51.568;6.998;2022-10-16T07:16:52;13.56;94.30
64997;SHT31;51545;51.568;6.998;2022-10-16T07:19:17;13.60;94.30
64997;SHT31;51545;51.568;6.998;2022-10-16T07:21:43;13.60;94.27
64997;SHT31;51545;51.568;6.998;2022-10-16T07:24:13;13.69;93.96
64997;SHT31;51545;51.568;6.998;2022-10-16T07:26:40;13.66;94.17
64997;SHT31;51545;51.568;6.998;2022-10-16T07:29:12;13.69;94.19
64997;SHT31;51545;51.568;6.998;2022-10-16T07:31:42;13.73;94.16
64997;SHT31;51545;51.568;6.998;2022-10-16T07:34:08;13.74;94.09
64997;SHT31;51545;51.568;6.998;2022-10-16T07:36:35;13.86;93.86
64997;SHT31;51545;51.568;6.998;2022-10-16T07:39:01;13.95;93.62
64997;SHT31;51545;51.568;6.998;2022-10-16T07:41:26;14.05;93.41
64997;SHT31;51545;51.568;6.998;2022-10-16T07:43:53;14.12;93.16
64997;SHT31;51545;51.568;6.998;2022-10-16T07:46:20;14.21;92.73
64997;SHT31;51545;51.568;6.998;2022-10-16T07:48:47;14.30;92.42
64997;SHT31;51545;51.568;6.998;2022-10-16T07:51:17;14.37;92.48
64997;SHT31;51545;51.568;6.998;2022-10-16T07:53:44;14.43;92.05
64997;SHT31;51545;51.568;6.998;2022-10-16T07:56:10;14.52;92.28
64997;SHT31;51545;51.568;6.998;2022-10-16T07:58:36;14.63;92.09
64997;SHT31;51545;51.568;6.998;2022-10-16T08:01:07;14.64;91.74
64997;SHT31;51545;51.568;6.998;2022-10-16T08:03:35;14.64;92.04
64997;SHT31;51545;51.568;6.998;2022-10-16T08:06:01;14.71;91.25
64997;SHT31;51545;51.568;6.998;2022-10-16T08:08:28;14.80;90.93
64997;SHT31;51545;51.568;6.998;2022-10-16T08:10:54;14.87;90.88
64997;SHT31;51545;51.568;6.998;2022-10-16T08:13:19;14.88;90.64
64997;SHT31;51545;51.568;6.998;2022-10-16T08:15:45;14.99;89.98
64997;SHT31;51545;51.568;6.998;2022-10-16T08:18:12;15.05;90.38
64997;SHT31;51545;51.568;6.998;2022-10-16T08:20:39;15.14;89.35
64997;SHT31;51545;51.568;6.998;2022-10-16T08:23:05;15.18;89.18
64997;SHT31;51545;51.568;6.998;2022-10-16T08:25:32;15.19;89.65
64997;SHT31;51545;51.568;6.998;2022-10-16T08:28:00;15.26;89.21
64997;SHT31;51545;51.568;6.998;2022-10-16T08:30:27;15.32;88.71
64997;SHT31;51545;51.568;6.998;2022-10-16T08:32:53;15.36;88.33
64997;SHT31;51545;51.568;6.998;2022-10-16T08:35:18;15.53;88.61
64997;SHT31;51545;51.568;6.998;2022-10-16T08:37:44;15.60;88.32
64997;SHT31;51545;51.568;6.998;2022-10-16T08:40:17;15.60;87.27
64997;SHT31;51545;51.568;6.998;2022-10-16T08:48:24;15.81;86.24
64997;SHT31;51545;51.568;6.998;2022-10-16T08:51:00;15.87;86.24
64997;SHT31;51545;51.568;6.998;2022-10-16T08:53:29;15.99;86.39
64997;SHT31;51545;51.568;6.998;2022-10-16T08:55:59;16.09;86.00
64997;SHT31;51545;51.568;6.998;2022-10-16T08:58:29;16.19;85.53
64997;SHT31;51545;51.568;6.998;2022-10-16T09:00:59;16.22;85.18
64997;SHT31;51545;51.568;6.998;2022-10-16T09:06:07;16.16;84.45
64997;SHT31;51545;51.568;6.998;2022-10-16T09:20:12;16.40;83.52
64997;SHT31;51545;51.568;6.998;2022-10-16T09:22:44;16.46;83.42
64997;SHT31;51545;51.568;6.998;2022-10-16T09:25:14;16.65;82.72
64997;SHT31;51545;51.568;6.998;2022-10-16T09:27:45;16.89;81.77
64997;SHT31;51545;51.568;6.998;2022-10-16T09:30:17;17.32;80.06
64997;SHT31;51545;51.568;6.998;2022-10-16T09:32:44;17.55;78.98
64997;SHT31;51545;51.568;6.998;2022-10-16T09:35:16;18.10;78.50
64997;SHT31;51545;51.568;6.998;2022-10-16T09:37:45;18.70;77.22
64997;SHT31;51545;51.568;6.998;2022-10-16T09:40:27;19.32;74.69
64997;SHT31;51545;51.568;6.998;2022-10-16T09:45:39;19.27;75.89
64997;SHT31;51545;51.568;6.998;2022-10-16T09:48:12;19.81;73.68
64997;SHT31;51545;51.568;6.998;2022-10-16T09:50:43;18.02;76.33
64997;SHT31;51545;51.568;6.998;2022-10-16T09:53:19;18.67;75.36
64997;SHT31;51545;51.568;6.998;2022-10-16T09:55:51;19.16;74.00
64997;SHT31;51545;51.568;6.998;2022-10-16T09:58:20;18.99;73.93
64997;SHT31;51545;51.568;6.998;2022-10-16T10:00:52;18.89;74.31
64997;SHT31;51545;51.568;6.998;2022-10-16T10:03:37;18.81;74.32
64997;SHT31;51545;51.568;6.998;2022-10-16T10:08:56;17.98;77.23
64997;SHT31;51545;51.568;6.998;2022-10-16T10:11:39;17.88;76.44
64997;SHT31;51545;51.568;6.998;2022-10-16T10:14:06;17.81;77.42
64997;SHT31;51545;51.568;6.998;2022-10-16T10:16:41;18.19;76.58
64997;SHT31;51545;51.568;6.998;2022-10-16T10:19:13;18.60;75.06
64997;SHT31;51545;51.568;6.998;2022-10-16T10:21:40;18.05;76.23
64997;SHT31;51545;51.568;6.998;2022-10-16T10:24:16;17.70;77.21
64997;SHT31;51545;51.568;6.998;2022-10-16T10:38:18;18.96;73.41
64997;SHT31;51545;51.568;6.998;2022-10-16T10:52:34;19.44;71.76
64997;SHT31;51545;51.568;6.998;2022-10-16T10:58:18;18.70;73.96
64997;SHT31;51545;51.568;6.998;2022-10-16T11:03:46;20.26;70.39
64997;SHT31;51545;51.568;6.998;2022-10-16T11:06:46;20.96;67.92
64997;SHT31;51545;51.568;6.998;2022-10-16T11:12:05;22.12;64.90
64997;SHT31;51545;51.568;6.998;2022-10-16T11:14:42;20.10;69.78
64997;SHT31;51545;51.568;6.998;2022-10-16T11:17:19;19.42;69.84
64997;SHT31;51545;51.568;6.998;2022-10-16T11:19:54;20.39;67.72
64997;SHT31;51545;51.568;6.998;2022-10-16T11:22:37;20.44;67.61
64997;SHT31;51545;51.568;6.998;2022-10-16T11:27:49;20.39;68.55
64997;SHT31;51545;51.568;6.998;2022-10-16T11:30:27;20.04;67.97
64997;SHT31;51545;51.568;6.998;2022-10-16T11:38:17;19.68;70.54
64997;SHT31;51545;51.568;6.998;2022-10-16T11:41:05;19.18;72.28
64997;SHT31;51545;51.568;6.998;2022-10-16T11:43:45;19.60;70.35
64997;SHT31;51545;51.568;6.998;2022-10-16T11:46:23;19.50;69.71
64997;SHT31;51545;51.568;6.998;2022-10-16T11:48:57;20.22;69.13
64997;SHT31;51545;51.568;6.998;2022-10-16T11:51:43;19.72;68.59
64997;SHT31;51545;51.568;6.998;2022-10-16T11:56:46;19.68;70.72
64997;SHT31;51545;51.568;6.998;2022-10-16T11:59:30;19.43;71.72
64997;SHT31;51545;51.568;6.998;2022-10-16T12:04:51;19.37;71.38
64997;SHT31;51545;51.568;6.998;2022-10-16T12:07:37;19.37;71.08
64997;SHT31;51545;51.568;6.998;2022-10-16T12:10:22;19.61;71.91
64997;SHT31;51545;51.568;6.998;2022-10-16T12:12:50;19.75;70.33
64997;SHT31;51545;51.568;6.998;2022-10-16T12:17:48;19.49;69.75
64997;SHT31;51545;51.568;6.998;2022-10-16T12:22:54;18.98;69.86
64997;SHT31;51545;51.568;6.998;2022-10-16T12:28:26;19.75;69.64
64997;SHT31;51545;51.568;6.998;2022-10-16T12:30:57;20.06;68.86
64997;SHT31;51545;51.568;6.998;2022-10-16T12:33:26;20.34;68.17
64997;SHT31;51545;51.568;6.998;2022-10-16T12:35:54;20.63;67.60
64997;SHT31;51545;51.568;6.998;2022-10-16T12:38:24;20.41;67.22
64997;SHT31;51545;51.568;6.998;2022-10-16T12:41:05;19.79;67.61
64997;SHT31;51545;51.568;6.998;2022-10-16T12:43:44;19.39;67.87
64997;SHT31;51545;51.568;6.998;2022-10-16T12:48:43;19.46;69.56
64997;SHT31;51545;51.568;6.998;2022-10-16T12:53:37;20.26;65.28
64997;SHT31;51545;51.568;6.998;2022-10-16T12:56:18;20.72;63.85
64997;SHT31;51545;51.568;6.998;2022-10-16T13:01:42;21.57;64.99
64997;SHT31;51545;51.568;6.998;2022-10-16T13:10:21;21.54;63.27
64997;SHT31;51545;51.568;6.998;2022-10-16T13:18:53;23.16;58.26
64997;SHT31;51545;51.568;6.998;2022-10-16T13:21:46;22.74;59.04
64997;SHT31;51545;51.568;6.998;2022-10-16T13:24:36;22.60;57.65
64997;SHT31;51545;51.568;6.998;2022-10-16T13:30:00;22.56;57.85
64997;SHT31;51545;51.568;6.998;2022-10-16T13:32:35;22.53;59.32
64997;SHT31;51545;51.568;6.998;2022-10-16T13:35:01;22.59;58.33
64997;SHT31;51545;51.568;6.998;2022-10-16T13:37:26;22.44;58.99
64997;SHT31;51545;51.568;6.998;2022-10-16T13:40:02;22.60;58.47
64997;SHT31;51545;51.568;6.998;2022-10-16T13:42:53;21.32;61.72
64997;SHT31;51545;51.568;6.998;2022-10-16T13:45:20;20.54;62.69
64997;SHT31;51545;51.568;6.998;2022-10-16T13:47:47;20.09;65.09
64997;SHT31;51545;51.568;6.998;2022-10-16T13:50:14;19.99;66.09
64997;SHT31;51545;51.568;6.998;2022-10-16T13:52:41;19.85;66.26
64997;SHT31;51545;51.568;6.998;2022-10-16T13:57:40;19.89;67.05
64997;SHT31;51545;51.568;6.998;2022-10-16T14:00:19;19.97;66.54
64997;SHT31;51545;51.568;6.998;2022-10-16T14:02:50;19.91;66.22
64997;SHT31;51545;51.568;6.998;2022-10-16T14:05:27;20.13;66.47
64997;SHT31;51545;51.568;6.998;2022-10-16T14:07:52;20.50;64.74
64997;SHT31;51545;51.568;6.998;2022-10-16T14:10:22;21.68;63.47
64997;SHT31;51545;51.568;6.998;2022-10-16T14:13:03;22.67;62.46
64997;SHT31;51545;51.568;6.998;2022-10-16T14:15:31;23.05;61.10
64997;SHT31;51545;51.568;6.998;2022-10-16T14:17:59;22.56;59.42
64997;SHT31;51545;51.568;6.998;2022-10-16T14:20:26;21.78;61.49
64997;SHT31;51545;51.568;6.998;2022-10-16T14:23:03;21.05;62.30
64997;SHT31;51545;51.568;6.998;2022-10-16T14:25:43;20.39;64.97
64997;SHT31;51545;51.568;6.998;2022-10-16T14:28:16;20.12;65.96
64997;SHT31;51545;51.568;6.998;2022-10-16T14:30:52;19.99;66.91
64997;SHT31;51545;51.568;6.998;2022-10-16T14:33:21;19.79;67.56
64997;SHT31;51545;51.568;6.998;2022-10-16T14:35:56;19.46;68.68
64997;SHT31;51545;51.568;6.998;2022-10-16T14:38:24;19.32;69.25
64997;SHT31;51545;51.568;6.998;2022-10-16T14:40:50;19.33;69.49
64997;SHT31;51545;51.568;6.998;2022-10-16T14:43:24;19.58;68.84
64997;SHT31;51545;51.568;6.998;2022-10-16T14:45:56;19.85;68.37
64997;SHT31;51545;51.568;6.998;2022-10-16T14:48:22;20.16;68.16
64997;SHT31;51545;51.568;6.998;2022-10-16T14:50:49;19.79;68.30
64997;SHT31;51545;51.568;6.998;2022-10-16T14:53:15;19.70;68.09
64997;SHT31;51545;51.568;6.998;2022-10-16T14:55:41;19.67;67.78
64997;SHT31;51545;51.568;6.998;2022-10-16T14:58:13;19.70;67.56
64997;SHT31;51545;51.568;6.998;2022-10-16T15:00:41;19.50;67.75
64997;SHT31;51545;51.568;6.998;2022-10-16T15:03:07;19.50;68.31
64997;SHT31;51545;51.568;6.998;2022-10-16T15:05:32;19.49;68.83
64997;SHT31;51545;51.568;6.998;2022-10-16T15:07:58;19.58;69.51
64997;SHT31;51545;51.568;6.998;2022-10-16T15:10:24;19.58;69.16
64997;SHT31;51545;51.568;6.998;2022-10-16T15:12:52;19.30;69.25
64997;SHT31;51545;51.568;6.998;2022-10-16T15:18:03;19.09;69.28
64997;SHT31;51545;51.568;6.998;2022-10-16T15:20:38;18.75;69.75
64997;SHT31;51545;51.568;6.998;2022-10-16T15:23:05;18.94;71.20
64997;SHT31;51545;51.568;6.998;2022-10-16T15:25:43;19.03;72.86
64997;SHT31;51545;51.568;6.998;2022-10-16T15:28:10;18.85;74.42
64997;SHT31;51545;51.568;6.998;2022-10-16T15:30:37;18.95;75.75
64997;SHT31;51545;51.568;6.998;2022-10-16T15:33:03;18.98;74.28
64997;SHT31;51545;51.568;6.998;2022-10-16T15:35:30;18.92;75.05
64997;SHT31;51545;51.568;6.998;2022-10-16T15:37:57;18.74;75.63
64997;SHT31;51545;51.568;6.998;2022-10-16T15:40:22;18.68;76.09
64997;SHT31;51545;51.568;6.998;2022-10-16T15:42:48;18.71;76.34
64997;SHT31;51545;51.568;6.998;2022-10-16T15:45:14;18.54;76.57
64997;SHT31;51545;51.568;6.998;2022-10-16T15:47:41;18.50;76.92
64997;SHT31;51545;51.568;6.998;2022-10-16T15:50:09;18.49;77.77
64997;SHT31;51545;51.568;6.998;2022-10-16T15:52:36;18.42;77.48
64997;SHT31;51545;51.568;6.998;2022-10-16T15:55:04;18.36;78.23
64997;SHT31;51545;51.568;6.998;2022-10-16T15:57:37;18.20;77.37
64997;SHT31;51545;51.568;6.998;2022-10-16T16:00:08;18.20;78.57
64997;SHT31;51545;51.568;6.998;2022-10-16T16:02:35;18.04;78.79
64997;SHT31;51545;51.568;6.998;2022-10-16T16:05:00;17.98;79.14
64997;SHT31;51545;51.568;6.998;2022-10-16T16:07:26;17.91;79.79
64997;SHT31;51545;51.568;6.998;2022-10-16T16:09:52;17.81;79.27
64997;SHT31;51545;51.568;6.998;2022-10-16T16:12:18;17.73;79.98
64997;SHT31;51545;51.568;6.998;2022-10-16T16:14:43;17.77;80.15
64997;SHT31;51545;51.568;6.998;2022-10-16T16:17:11;17.74;80.28
64997;SHT31;51545;51.568;6.998;2022-10-16T16:19:36;17.70;80.53
64997;SHT31;51545;51.568;6.998;2022-10-16T16:22:02;17.58;81.25
64997;SHT31;51545;51.568;6.998;2022-10-16T16:24:27;17.47;81.93
64997;SHT31;51545;51.568;6.998;2022-10-16T16:26:53;17.35;81.94
64997;SHT31;51545;51.568;6.998;2022-10-16T16:29:18;17.32;81.66
64997;SHT31;51545;51.568;6.998;2022-10-16T16:31:44;17.18;81.82
64997;SHT31;51545;51.568;6.998;2022-10-16T16:34:11;16.98;82.74
64997;SHT31;51545;51.568;6.998;2022-10-16T16:36:38;16.88;83.36
64997;SHT31;51545;51.568;6.998;2022-10-16T16:39:05;16.80;84.35
64997;SHT31;51545;51.568;6.998;2022-10-16T16:41:31;16.78;83.87
64997;SHT31;51545;51.568;6.998;2022-10-16T16:44:04;16.72;84.36
64997;SHT31;51545;51.568;6.998;2022-10-16T16:46:31;16.67;85.14
64997;SHT31;51545;51.568;6.998;2022-10-16T16:48:57;16.65;85.04
64997;SHT31;51545;51.568;6.998;2022-10-16T16:51:23;16.70;84.74
64997;SHT31;51545;51.568;6.998;2022-10-16T16:53:49;16.64;84.77
64997;SHT31;51545;51.568;6.998;2022-10-16T16:56:16;16.56;85.38
64997;SHT31;51545;51.568;6.998;2022-10-16T16:58:44;16.53;85.32
64997;SHT31;51545;51.568;6.998;2022-10-16T17:01:10;16.46;85.61
64997;SHT31;51545;51.568;6.998;2022-10-16T17:03:36;16.44;85.65
64997;SHT31;51545;51.568;6.998;2022-10-16T17:06:05;16.46;85.51
64997;SHT31;51545;51.568;6.998;2022-10-16T17:08:33;16.36;85.73
64997;SHT31;51545;51.568;6.998;2022-10-16T17:11:00;16.26;86.16
64997;SHT31;51545;51.568;6.998;2022-10-16T17:13:26;16.14;86.65
64997;SHT31;51545;51.568;6.998;2022-10-16T17:15:53;16.09;86.26
64997;SHT31;51545;51.568;6.998;2022-10-16T17:18:20;16.02;86.65
64997;SHT31;51545;51.568;6.998;2022-10-16T17:20:47;16.01;87.03
64997;SHT31;51545;51.568;6.998;2022-10-16T17:23:13;16.02;86.69
64997;SHT31;51545;51.568;6.998;2022-10-16T17:25:40;15.99;86.93
64997;SHT31;51545;51.568;6.998;2022-10-16T17:28:06;15.98;87.51
64997;SHT31;51545;51.568;6.998;2022-10-16T17:30:33;15.99;87.49
64997;SHT31;51545;51.568;6.998;2022-10-16T17:33:00;15.94;87.84
64997;SHT31;51545;51.568;6.998;2022-10-16T17:35:26;15.87;88.31
64997;SHT31;51545;51.568;6.998;2022-10-16T17:37:52;15.84;87.88